This is the latest recevied weather packets stored in our database for station/object IN3MWE-10. If no packets are shown the sender has not sent any weather packets the latest 10 day(s).
| Time | Temp. | Humidity | Pressure | Rain* | Wind** | Luminosity | Snow |
|---|---|---|---|---|---|---|---|
| 1788559525 | 25° C | 59% | 981.6 hPa | - | - | - | - |
| 1788558624 | 25° C | 58% | 981.4 hPa | - | - | - | - |
| 1788557724 | 25° C | 57% | 981.2 hPa | - | - | - | - |
| 1788556824 | 25° C | 58% | 981.2 hPa | - | - | - | - |
| 1788555924 | 25.56° C | 58% | 981.2 hPa | - | - | - | - |
| 1788555024 | 25.56° C | 58% | 981.1 hPa | - | - | - | - |
| 1788554124 | 25.56° C | 57% | 981.1 hPa | - | - | - | - |
| 1788553224 | 25.56° C | 57% | 981.2 hPa | - | - | - | - |
| 1788552324 | 26.11° C | 56% | 981 hPa | - | - | - | - |
| 1788551423 | 26.11° C | 57% | 981 hPa | - | - | - | - |
| 1788550523 | 26.11° C | 56% | 981.1 hPa | - | - | - | - |
| 1788549623 | 26.11° C | 56% | 981.1 hPa | - | - | - | - |
| 1788548723 | 26.11° C | 57% | 981 hPa | - | - | - | - |
| 1788547823 | 26.67° C | 57% | 980.8 hPa | - | - | - | - |
| 1788546923 | 26.67° C | 58% | 980.7 hPa | - | - | - | - |
| 1788546023 | 26.67° C | 58% | 980.5 hPa | - | - | - | - |
| 1788545123 | 26.67° C | 57% | 980.2 hPa | - | - | - | - |
| 1788544222 | 27.22° C | 56% | 980 hPa | - | - | - | - |
| 1788543322 | 27.78° C | 56% | 979.9 hPa | - | - | - | - |
| 1788542422 | 27.78° C | 55% | 979.9 hPa | - | - | - | - |
| 1788541522 | 28.89° C | 56% | 979.7 hPa | - | - | - | - |
| 1788540622 | 30.56° C | 45% | 979.5 hPa | - | - | - | - |
| 1788539722 | 30.56° C | 41% | 979.5 hPa | - | - | - | - |
| 1788538821 | 31.11° C | 39% | 979.3 hPa | - | - | - | - |
| 1788537921 | 32.22° C | 36% | 979.4 hPa | - | - | - | - |
* Rain since midnight (hover to see other rain measurements)
** Current wind speed in m/s (hover to see current wind gust speed)